sensor_id;sensor_type;location;lat;lon;timestamp;temperature;humidity
19359;DHT22;9815;52.334;20.890;2023-03-23T00:01:49;9.50;99.90
19359;DHT22;9815;52.334;20.890;2023-03-23T00:04:16;9.50;99.90
19359;DHT22;9815;52.334;20.890;2023-03-23T00:06:44;9.50;99.90
19359;DHT22;9815;52.334;20.890;2023-03-23T00:09:13;9.50;99.90
19359;DHT22;9815;52.334;20.890;2023-03-23T00:11:41;9.40;99.90
19359;DHT22;9815;52.334;20.890;2023-03-23T00:14:10;9.40;99.90
19359;DHT22;9815;52.334;20.890;2023-03-23T00:16:39;9.40;99.90
19359;DHT22;9815;52.334;20.890;2023-03-23T00:19:10;9.40;99.90
19359;DHT22;9815;52.334;20.890;2023-03-23T00:21:39;9.40;99.90
19359;DHT22;9815;52.334;20.890;2023-03-23T00:24:10;9.30;99.90
19359;DHT22;9815;52.334;20.890;2023-03-23T00:26:38;9.30;99.90
19359;DHT22;9815;52.334;20.890;2023-03-23T00:29:07;9.20;99.90
19359;DHT22;9815;52.334;20.890;2023-03-23T00:31:39;9.20;99.90
19359;DHT22;9815;52.334;20.890;2023-03-23T00:34:06;9.20;99.90
19359;DHT22;9815;52.334;20.890;2023-03-23T00:36:34;9.20;99.90
19359;DHT22;9815;52.334;20.890;2023-03-23T00:39:12;9.20;99.90
19359;DHT22;9815;52.334;20.890;2023-03-23T00:41:42;9.20;99.90
19359;DHT22;9815;52.334;20.890;2023-03-23T00:44:10;9.20;99.90
19359;DHT22;9815;52.334;20.890;2023-03-23T00:46:43;9.20;99.90
19359;DHT22;9815;52.334;20.890;2023-03-23T00:49:12;9.20;99.90
19359;DHT22;9815;52.334;20.890;2023-03-23T00:51:39;9.20;99.90
19359;DHT22;9815;52.334;20.890;2023-03-23T00:54:07;9.20;99.90
19359;DHT22;9815;52.334;20.890;2023-03-23T00:56:36;9.20;99.90
19359;DHT22;9815;52.334;20.890;2023-03-23T00:59:05;9.30;99.90
19359;DHT22;9815;52.334;20.890;2023-03-23T01:01:32;9.30;99.90
19359;DHT22;9815;52.334;20.890;2023-03-23T01:04:00;9.40;99.90
19359;DHT22;9815;52.334;20.890;2023-03-23T01:06:31;9.40;99.90
19359;DHT22;9815;52.334;20.890;2023-03-23T01:08:58;9.50;99.90
19359;DHT22;9815;52.334;20.890;2023-03-23T01:11:26;9.60;99.90
19359;DHT22;9815;52.334;20.890;2023-03-23T01:13:54;9.60;99.90
19359;DHT22;9815;52.334;20.890;2023-03-23T01:16:21;9.70;99.90
19359;DHT22;9815;52.334;20.890;2023-03-23T01:18:48;9.70;99.90
19359;DHT22;9815;52.334;20.890;2023-03-23T01:21:18;9.80;99.90
19359;DHT22;9815;52.334;20.890;2023-03-23T01:23:45;9.80;99.90
19359;DHT22;9815;52.334;20.890;2023-03-23T01:26:14;9.80;99.90
19359;DHT22;9815;52.334;20.890;2023-03-23T01:28:42;9.80;99.90
19359;DHT22;9815;52.334;20.890;2023-03-23T01:31:13;9.80;99.90
19359;DHT22;9815;52.334;20.890;2023-03-23T01:33:43;9.70;99.90
19359;DHT22;9815;52.334;20.890;2023-03-23T01:36:12;9.70;99.90
19359;DHT22;9815;52.334;20.890;2023-03-23T01:38:42;9.70;99.90
19359;DHT22;9815;52.334;20.890;2023-03-23T01:41:10;9.70;99.90
19359;DHT22;9815;52.334;20.890;2023-03-23T01:43:54;9.70;99.90
19359;DHT22;9815;52.334;20.890;2023-03-23T01:46:25;9.70;99.90
19359;DHT22;9815;52.334;20.890;2023-03-23T01:48:52;9.70;99.90
19359;DHT22;9815;52.334;20.890;2023-03-23T01:51:20;9.70;99.90
19359;DHT22;9815;52.334;20.890;2023-03-23T01:53:53;9.60;99.90
19359;DHT22;9815;52.334;20.890;2023-03-23T01:56:24;9.70;99.90
19359;DHT22;9815;52.334;20.890;2023-03-23T01:58:56;9.60;99.90
19359;DHT22;9815;52.334;20.890;2023-03-23T02:01:26;9.60;99.90
19359;DHT22;9815;52.334;20.890;2023-03-23T02:03:55;9.60;99.90
19359;DHT22;9815;52.334;20.890;2023-03-23T02:06:23;9.60;99.90
19359;DHT22;9815;52.334;20.890;2023-03-23T02:09:03;9.60;99.90
19359;DHT22;9815;52.334;20.890;2023-03-23T02:11:32;9.60;99.90
19359;DHT22;9815;52.334;20.890;2023-03-23T02:14:00;9.60;99.90
19359;DHT22;9815;52.334;20.890;2023-03-23T02:16:34;9.60;99.90
19359;DHT22;9815;52.334;20.890;2023-03-23T02:19:21;9.60;99.90
19359;DHT22;9815;52.334;20.890;2023-03-23T02:22:18;9.60;99.90
19359;DHT22;9815;52.334;20.890;2023-03-23T02:24:57;9.60;99.90
19359;DHT22;9815;52.334;20.890;2023-03-23T02:27:42;9.60;99.90
19359;DHT22;9815;52.334;20.890;2023-03-23T02:30:27;9.60;99.90
19359;DHT22;9815;52.334;20.890;2023-03-23T02:33:19;9.60;99.90
19359;DHT22;9815;52.334;20.890;2023-03-23T02:35:56;9.60;99.90
19359;DHT22;9815;52.334;20.890;2023-03-23T02:38:28;9.60;99.90
19359;DHT22;9815;52.334;20.890;2023-03-23T02:41:00;9.60;99.90
19359;DHT22;9815;52.334;20.890;2023-03-23T02:43:30;9.50;99.90
19359;DHT22;9815;52.334;20.890;2023-03-23T02:45:58;9.60;99.90
19359;DHT22;9815;52.334;20.890;2023-03-23T02:48:29;9.60;99.90
19359;DHT22;9815;52.334;20.890;2023-03-23T02:50:57;9.60;99.90
19359;DHT22;9815;52.334;20.890;2023-03-23T02:53:26;9.60;99.90
19359;DHT22;9815;52.334;20.890;2023-03-23T02:55:55;9.60;99.90
19359;DHT22;9815;52.334;20.890;2023-03-23T02:58:27;9.60;99.90
19359;DHT22;9815;52.334;20.890;2023-03-23T03:00:56;9.50;99.90
19359;DHT22;9815;52.334;20.890;2023-03-23T03:03:28;9.50;99.90
19359;DHT22;9815;52.334;20.890;2023-03-23T03:06:06;9.50;99.90
19359;DHT22;9815;52.334;20.890;2023-03-23T03:08:40;9.60;99.90
19359;DHT22;9815;52.334;20.890;2023-03-23T03:11:12;9.50;99.90
19359;DHT22;9815;52.334;20.890;2023-03-23T03:13:46;9.60;99.90
19359;DHT22;9815;52.334;20.890;2023-03-23T03:16:23;9.50;99.90
19359;DHT22;9815;52.334;20.890;2023-03-23T03:18:56;9.50;99.90
19359;DHT22;9815;52.334;20.890;2023-03-23T03:21:29;9.50;99.90
19359;DHT22;9815;52.334;20.890;2023-03-23T03:24:00;9.40;99.90
19359;DHT22;9815;52.334;20.890;2023-03-23T03:26:29;9.40;99.90
19359;DHT22;9815;52.334;20.890;2023-03-23T03:29:08;9.30;99.90
19359;DHT22;9815;52.334;20.890;2023-03-23T03:31:43;9.30;99.90
19359;DHT22;9815;52.334;20.890;2023-03-23T03:34:14;9.20;99.90
19359;DHT22;9815;52.334;20.890;2023-03-23T03:36:45;9.20;99.90
19359;DHT22;9815;52.334;20.890;2023-03-23T03:39:14;9.20;99.90
19359;DHT22;9815;52.334;20.890;2023-03-23T03:41:43;9.10;99.90
19359;DHT22;9815;52.334;20.890;2023-03-23T03:44:10;9.10;99.90
19359;DHT22;9815;52.334;20.890;2023-03-23T03:46:37;9.10;99.90
19359;DHT22;9815;52.334;20.890;2023-03-23T03:49:07;9.10;99.90
19359;DHT22;9815;52.334;20.890;2023-03-23T03:51:39;9.00;99.90
19359;DHT22;9815;52.334;20.890;2023-03-23T03:54:11;9.00;99.90
19359;DHT22;9815;52.334;20.890;2023-03-23T03:56:38;9.00;99.90
19359;DHT22;9815;52.334;20.890;2023-03-23T03:59:24;9.00;99.90
19359;DHT22;9815;52.334;20.890;2023-03-23T04:02:18;8.90;99.90
19359;DHT22;9815;52.334;20.890;2023-03-23T04:04:49;8.90;99.90
19359;DHT22;9815;52.334;20.890;2023-03-23T04:07:20;8.90;99.90
19359;DHT22;9815;52.334;20.890;2023-03-23T04:09:47;8.90;99.90
19359;DHT22;9815;52.334;20.890;2023-03-23T04:12:17;8.90;99.90
19359;DHT22;9815;52.334;20.890;2023-03-23T04:14:57;8.90;99.90
19359;DHT22;9815;52.334;20.890;2023-03-23T04:17:32;8.80;99.90
19359;DHT22;9815;52.334;20.890;2023-03-23T04:20:00;8.80;99.90
19359;DHT22;9815;52.334;20.890;2023-03-23T04:22:34;8.80;99.90
19359;DHT22;9815;52.334;20.890;2023-03-23T04:25:02;8.80;99.90
19359;DHT22;9815;52.334;20.890;2023-03-23T04:27:34;8.80;99.90
19359;DHT22;9815;52.334;20.890;2023-03-23T04:30:04;8.80;99.90
19359;DHT22;9815;52.334;20.890;2023-03-23T04:32:45;8.70;99.90
19359;DHT22;9815;52.334;20.890;2023-03-23T04:35:19;8.70;99.90
19359;DHT22;9815;52.334;20.890;2023-03-23T04:37:55;8.70;99.90
19359;DHT22;9815;52.334;20.890;2023-03-23T04:40:23;8.70;99.90
19359;DHT22;9815;52.334;20.890;2023-03-23T04:43:03;8.60;99.90
19359;DHT22;9815;52.334;20.890;2023-03-23T04:45:53;8.70;99.90
19359;DHT22;9815;52.334;20.890;2023-03-23T04:48:24;8.70;99.90
19359;DHT22;9815;52.334;20.890;2023-03-23T04:51:05;8.70;99.90
19359;DHT22;9815;52.334;20.890;2023-03-23T04:53:34;8.70;99.90
19359;DHT22;9815;52.334;20.890;2023-03-23T04:56:02;8.70;99.90
19359;DHT22;9815;52.334;20.890;2023-03-23T04:58:35;8.70;99.90
19359;DHT22;9815;52.334;20.890;2023-03-23T05:01:21;8.80;99.90
19359;DHT22;9815;52.334;20.890;2023-03-23T05:04:08;8.80;99.90
19359;DHT22;9815;52.334;20.890;2023-03-23T05:06:37;8.80;99.90
19359;DHT22;9815;52.334;20.890;2023-03-23T05:09:14;8.90;99.90
19359;DHT22;9815;52.334;20.890;2023-03-23T05:11:42;8.90;99.90
19359;DHT22;9815;52.334;20.890;2023-03-23T05:14:09;9.00;99.90
19359;DHT22;9815;52.334;20.890;2023-03-23T05:16:38;9.00;99.90
19359;DHT22;9815;52.334;20.890;2023-03-23T05:19:07;9.10;99.90
19359;DHT22;9815;52.334;20.890;2023-03-23T05:21:36;9.10;99.90
19359;DHT22;9815;52.334;20.890;2023-03-23T05:24:04;9.20;99.90
19359;DHT22;9815;52.334;20.890;2023-03-23T05:26:33;9.20;99.90
19359;DHT22;9815;52.334;20.890;2023-03-23T05:29:10;9.30;99.90
19359;DHT22;9815;52.334;20.890;2023-03-23T05:31:47;9.40;99.90
19359;DHT22;9815;52.334;20.890;2023-03-23T05:34:15;9.50;99.90
19359;DHT22;9815;52.334;20.890;2023-03-23T05:36:50;9.50;99.90
19359;DHT22;9815;52.334;20.890;2023-03-23T05:39:29;9.60;99.90
19359;DHT22;9815;52.334;20.890;2023-03-23T05:42:27;9.60;99.90
19359;DHT22;9815;52.334;20.890;2023-03-23T05:45:09;9.70;99.90
19359;DHT22;9815;52.334;20.890;2023-03-23T05:47:37;9.80;99.90
19359;DHT22;9815;52.334;20.890;2023-03-23T05:50:09;9.90;99.90
19359;DHT22;9815;52.334;20.890;2023-03-23T05:52:38;9.90;99.90
19359;DHT22;9815;52.334;20.890;2023-03-23T05:55:08;9.90;99.90
19359;DHT22;9815;52.334;20.890;2023-03-23T05:57:39;10.00;99.90
19359;DHT22;9815;52.334;20.890;2023-03-23T06:00:17;10.10;99.90
19359;DHT22;9815;52.334;20.890;2023-03-23T06:02:55;10.20;99.90
19359;DHT22;9815;52.334;20.890;2023-03-23T06:05:33;10.30;99.90
19359;DHT22;9815;52.334;20.890;2023-03-23T06:08:00;10.40;99.90
19359;DHT22;9815;52.334;20.890;2023-03-23T06:10:27;10.40;99.90
19359;DHT22;9815;52.334;20.890;2023-03-23T06:13:01;10.50;99.90
19359;DHT22;9815;52.334;20.890;2023-03-23T06:15:55;10.50;99.90
19359;DHT22;9815;52.334;20.890;2023-03-23T06:18:44;10.60;99.90
19359;DHT22;9815;52.334;20.890;2023-03-23T06:21:25;10.70;99.90
19359;DHT22;9815;52.334;20.890;2023-03-23T06:23:55;10.70;99.90
19359;DHT22;9815;52.334;20.890;2023-03-23T06:26:29;10.80;99.90
19359;DHT22;9815;52.334;20.890;2023-03-23T06:29:01;10.80;99.90
19359;DHT22;9815;52.334;20.890;2023-03-23T06:31:33;10.90;99.90
19359;DHT22;9815;52.334;20.890;2023-03-23T06:34:01;10.90;99.90
19359;DHT22;9815;52.334;20.890;2023-03-23T06:36:47;11.00;99.90
19359;DHT22;9815;52.334;20.890;2023-03-23T06:39:18;11.10;99.90
19359;DHT22;9815;52.334;20.890;2023-03-23T06:42:14;11.10;99.90
19359;DHT22;9815;52.334;20.890;2023-03-23T06:44:48;11.20;99.90
19359;DHT22;9815;52.334;20.890;2023-03-23T06:47:16;11.20;99.90
19359;DHT22;9815;52.334;20.890;2023-03-23T06:49:47;11.30;99.90
19359;DHT22;9815;52.334;20.890;2023-03-23T06:52:21;11.30;99.90
19359;DHT22;9815;52.334;20.890;2023-03-23T06:54:49;11.40;99.90
19359;DHT22;9815;52.334;20.890;2023-03-23T06:57:18;11.60;99.90
19359;DHT22;9815;52.334;20.890;2023-03-23T06:59:48;11.80;99.90
19359;DHT22;9815;52.334;20.890;2023-03-23T07:02:15;12.00;99.90
19359;DHT22;9815;52.334;20.890;2023-03-23T07:04:46;12.30;99.90
19359;DHT22;9815;52.334;20.890;2023-03-23T07:07:19;12.40;99.90
19359;DHT22;9815;52.334;20.890;2023-03-23T07:10:25;12.70;99.90
19359;DHT22;9815;52.334;20.890;2023-03-23T07:12:53;12.80;99.90
19359;DHT22;9815;52.334;20.890;2023-03-23T07:15:25;13.00;99.90
19359;DHT22;9815;52.334;20.890;2023-03-23T07:17:55;13.00;99.90
19359;DHT22;9815;52.334;20.890;2023-03-23T07:20:37;13.10;99.90
19359;DHT22;9815;52.334;20.890;2023-03-23T07:23:28;13.20;99.90
19359;DHT22;9815;52.334;20.890;2023-03-23T07:26:03;13.40;99.90
19359;DHT22;9815;52.334;20.890;2023-03-23T07:28:38;13.50;99.90
19359;DHT22;9815;52.334;20.890;2023-03-23T07:31:36;13.70;99.90
19359;DHT22;9815;52.334;20.890;2023-03-23T07:34:03;13.70;99.90
19359;DHT22;9815;52.334;20.890;2023-03-23T07:36:49;14.00;99.90
19359;DHT22;9815;52.334;20.890;2023-03-23T07:39:17;14.20;98.70
19359;DHT22;9815;52.334;20.890;2023-03-23T07:41:46;14.40;99.70
19359;DHT22;9815;52.334;20.890;2023-03-23T07:44:19;14.40;97.80
19359;DHT22;9815;52.334;20.890;2023-03-23T07:46:51;14.50;95.90
19359;DHT22;9815;52.334;20.890;2023-03-23T07:49:27;14.60;93.70
19359;DHT22;9815;52.334;20.890;2023-03-23T07:52:05;14.70;96.10
19359;DHT22;9815;52.334;20.890;2023-03-23T07:54:32;14.80;97.20
19359;DHT22;9815;52.334;20.890;2023-03-23T07:57:04;14.70;94.00
19359;DHT22;9815;52.334;20.890;2023-03-23T07:59:36;14.90;92.00
19359;DHT22;9815;52.334;20.890;2023-03-23T08:02:04;15.10;85.80
19359;DHT22;9815;52.334;20.890;2023-03-23T08:04:47;15.50;87.50
19359;DHT22;9815;52.334;20.890;2023-03-23T08:07:44;16.10;74.60
19359;DHT22;9815;52.334;20.890;2023-03-23T08:10:29;16.20;66.90
19359;DHT22;9815;52.334;20.890;2023-03-23T08:13:23;16.20;61.30
19359;DHT22;9815;52.334;20.890;2023-03-23T08:16:10;16.00;60.90
19359;DHT22;9815;52.334;20.890;2023-03-23T08:18:59;15.90;63.80
19359;DHT22;9815;52.334;20.890;2023-03-23T08:21:52;15.80;64.10
19359;DHT22;9815;52.334;20.890;2023-03-23T08:24:40;15.50;65.90
19359;DHT22;9815;52.334;20.890;2023-03-23T08:27:38;15.50;67.80
19359;DHT22;9815;52.334;20.890;2023-03-23T08:30:19;15.60;65.50
19359;DHT22;9815;52.334;20.890;2023-03-23T08:33:10;15.50;64.90
19359;DHT22;9815;52.334;20.890;2023-03-23T08:35:55;15.50;64.80
19359;DHT22;9815;52.334;20.890;2023-03-23T08:38:41;15.60;63.00
19359;DHT22;9815;52.334;20.890;2023-03-23T08:41:32;15.60;60.60
19359;DHT22;9815;52.334;20.890;2023-03-23T08:44:11;15.70;67.00
19359;DHT22;9815;52.334;20.890;2023-03-23T08:47:04;15.80;65.20
19359;DHT22;9815;52.334;20.890;2023-03-23T08:49:52;15.70;62.40
19359;DHT22;9815;52.334;20.890;2023-03-23T08:52:47;15.80;60.40
19359;DHT22;9815;52.334;20.890;2023-03-23T08:55:21;15.80;60.70
19359;DHT22;9815;52.334;20.890;2023-03-23T08:58:02;15.80;61.10
19359;DHT22;9815;52.334;20.890;2023-03-23T09:00:53;15.70;61.40
19359;DHT22;9815;52.334;20.890;2023-03-23T09:03:55;15.70;61.00
19359;DHT22;9815;52.334;20.890;2023-03-23T09:06:25;15.60;63.10
19359;DHT22;9815;52.334;20.890;2023-03-23T09:08:54;15.50;63.20
19359;DHT22;9815;52.334;20.890;2023-03-23T09:11:22;15.60;62.90
19359;DHT22;9815;52.334;20.890;2023-03-23T09:13:49;15.40;62.20
19359;DHT22;9815;52.334;20.890;2023-03-23T09:16:16;15.50;62.50
19359;DHT22;9815;52.334;20.890;2023-03-23T09:18:43;15.60;61.10
19359;DHT22;9815;52.334;20.890;2023-03-23T09:21:10;15.70;62.10
19359;DHT22;9815;52.334;20.890;2023-03-23T09:23:38;15.60;60.60
19359;DHT22;9815;52.334;20.890;2023-03-23T09:26:08;15.70;60.00
19359;DHT22;9815;52.334;20.890;2023-03-23T09:28:35;15.70;61.30
19359;DHT22;9815;52.334;20.890;2023-03-23T09:31:02;15.70;60.40
19359;DHT22;9815;52.334;20.890;2023-03-23T09:33:30;15.70;57.20
19359;DHT22;9815;52.334;20.890;2023-03-23T09:35:59;15.80;57.20
19359;DHT22;9815;52.334;20.890;2023-03-23T09:38:28;15.80;58.70
19359;DHT22;9815;52.334;20.890;2023-03-23T09:41:03;15.90;56.10
19359;DHT22;9815;52.334;20.890;2023-03-23T09:43:55;16.00;55.50
19359;DHT22;9815;52.334;20.890;2023-03-23T09:46:38;16.20;54.70
19359;DHT22;9815;52.334;20.890;2023-03-23T09:49:10;16.30;51.90
19359;DHT22;9815;52.334;20.890;2023-03-23T09:51:45;16.50;52.30
19359;DHT22;9815;52.334;20.890;2023-03-23T09:54:19;16.60;46.00
19359;DHT22;9815;52.334;20.890;2023-03-23T09:56:47;16.70;45.80
19359;DHT22;9815;52.334;20.890;2023-03-23T09:59:21;16.80;44.20
19359;DHT22;9815;52.334;20.890;2023-03-23T10:01:51;17.10;44.40
19359;DHT22;9815;52.334;20.890;2023-03-23T10:04:31;17.60;40.50
19359;DHT22;9815;52.334;20.890;2023-03-23T10:07:09;18.10;36.80
19359;DHT22;9815;52.334;20.890;2023-03-23T10:09:36;18.30;34.50
19359;DHT22;9815;52.334;20.890;2023-03-23T10:12:11;18.30;33.10
19359;DHT22;9815;52.334;20.890;2023-03-23T10:14:52;18.50;33.70
19359;DHT22;9815;52.334;20.890;2023-03-23T10:17:26;18.70;30.70
19359;DHT22;9815;52.334;20.890;2023-03-23T10:19:59;19.30;30.00
19359;DHT22;9815;52.334;20.890;2023-03-23T10:22:38;19.90;27.40
19359;DHT22;9815;52.334;20.890;2023-03-23T10:25:15;20.20;26.70
19359;DHT22;9815;52.334;20.890;2023-03-23T10:27:47;20.60;26.20
19359;DHT22;9815;52.334;20.890;2023-03-23T10:30:21;20.70;25.50
19359;DHT22;9815;52.334;20.890;2023-03-23T10:32:51;20.10;25.60
19359;DHT22;9815;52.334;20.890;2023-03-23T10:35:25;19.60;27.10
19359;DHT22;9815;52.334;20.890;2023-03-23T10:37:58;19.40;27.80
19359;DHT22;9815;52.334;20.890;2023-03-23T10:40:28;19.40;27.60
19359;DHT22;9815;52.334;20.890;2023-03-23T10:42:57;19.50;27.80
19359;DHT22;9815;52.334;20.890;2023-03-23T10:45:28;19.60;27.40
19359;DHT22;9815;52.334;20.890;2023-03-23T10:48:08;19.60;27.00
19359;DHT22;9815;52.334;20.890;2023-03-23T10:50:38;19.70;25.80
19359;DHT22;9815;52.334;20.890;2023-03-23T10:53:14;19.50;25.50
19359;DHT22;9815;52.334;20.890;2023-03-23T10:55:42;19.60;26.00
19359;DHT22;9815;52.334;20.890;2023-03-23T10:58:13;19.70;26.50
19359;DHT22;9815;52.334;20.890;2023-03-23T11:00:50;19.90;25.90
19359;DHT22;9815;52.334;20.890;2023-03-23T11:03:27;20.60;25.70
19359;DHT22;9815;52.334;20.890;2023-03-23T11:06:00;21.10;25.20
19359;DHT22;9815;52.334;20.890;2023-03-23T11:08:30;21.60;24.80
19359;DHT22;9815;52.334;20.890;2023-03-23T11:11:08;22.10;24.30
19359;DHT22;9815;52.334;20.890;2023-03-23T11:13:40;22.40;23.20
19359;DHT22;9815;52.334;20.890;2023-03-23T11:16:10;22.30;21.40
19359;DHT22;9815;52.334;20.890;2023-03-23T11:18:48;22.30;21.90
19359;DHT22;9815;52.334;20.890;2023-03-23T11:21:15;22.10;22.00
19359;DHT22;9815;52.334;20.890;2023-03-23T11:23:48;22.30;22.10
19359;DHT22;9815;52.334;20.890;2023-03-23T11:26:18;22.20;21.30
19359;DHT22;9815;52.334;20.890;2023-03-23T11:28:51;21.90;21.80
19359;DHT22;9815;52.334;20.890;2023-03-23T11:31:22;21.60;22.60
19359;DHT22;9815;52.334;20.890;2023-03-23T11:33:53;21.50;22.80
19359;DHT22;9815;52.334;20.890;2023-03-23T11:36:20;21.00;23.20
19359;DHT22;9815;52.334;20.890;2023-03-23T11:38:53;20.90;23.10
19359;DHT22;9815;52.334;20.890;2023-03-23T11:41:24;20.80;23.90
19359;DHT22;9815;52.334;20.890;2023-03-23T11:43:52;20.80;23.60
19359;DHT22;9815;52.334;20.890;2023-03-23T11:46:29;20.80;23.80
19359;DHT22;9815;52.334;20.890;2023-03-23T11:49:00;21.30;24.20
19359;DHT22;9815;52.334;20.890;2023-03-23T11:51:32;21.80;23.60
19359;DHT22;9815;52.334;20.890;2023-03-23T11:54:19;21.60;22.70
19359;DHT22;9815;52.334;20.890;2023-03-23T11:56:48;21.80;21.80
19359;DHT22;9815;52.334;20.890;2023-03-23T11:59:16;21.90;21.70
19359;DHT22;9815;52.334;20.890;2023-03-23T12:01:51;22.00;21.20
19359;DHT22;9815;52.334;20.890;2023-03-23T12:04:39;22.10;21.30
19359;DHT22;9815;52.334;20.890;2023-03-23T12:07:18;22.20;21.50
19359;DHT22;9815;52.334;20.890;2023-03-23T12:09:52;22.40;21.10
19359;DHT22;9815;52.334;20.890;2023-03-23T12:12:25;22.90;20.50
19359;DHT22;9815;52.334;20.890;2023-03-23T12:15:03;23.20;19.80
19359;DHT22;9815;52.334;20.890;2023-03-23T12:17:42;22.90;19.80
19359;DHT22;9815;52.334;20.890;2023-03-23T12:20:20;22.60;20.10
19359;DHT22;9815;52.334;20.890;2023-03-23T12:22:58;22.70;20.80
19359;DHT22;9815;52.334;20.890;2023-03-23T12:25:55;22.70;19.60
19359;DHT22;9815;52.334;20.890;2023-03-23T12:28:36;22.70;19.70
19359;DHT22;9815;52.334;20.890;2023-03-23T12:31:11;22.90;20.10
19359;DHT22;9815;52.334;20.890;2023-03-23T12:33:50;23.40;20.20
19359;DHT22;9815;52.334;20.890;2023-03-23T12:36:30;23.40;19.20
19359;DHT22;9815;52.334;20.890;2023-03-23T12:39:14;23.30;19.20
19359;DHT22;9815;52.334;20.890;2023-03-23T12:41:49;23.00;19.40
19359;DHT22;9815;52.334;20.890;2023-03-23T12:44:23;22.20;20.30
19359;DHT22;9815;52.334;20.890;2023-03-23T12:49:54;21.60;21.90
19359;DHT22;9815;52.334;20.890;2023-03-23T12:52:25;21.40;22.50
19359;DHT22;9815;52.334;20.890;2023-03-23T12:54:58;21.20;22.40
19359;DHT22;9815;52.334;20.890;2023-03-23T12:57:32;21.10;23.10
19359;DHT22;9815;52.334;20.890;2023-03-23T13:00:06;20.90;23.40
19359;DHT22;9815;52.334;20.890;2023-03-23T13:02:41;20.90;24.40
19359;DHT22;9815;52.334;20.890;2023-03-23T13:05:24;21.00;24.30
19359;DHT22;9815;52.334;20.890;2023-03-23T13:07:56;20.90;23.90
19359;DHT22;9815;52.334;20.890;2023-03-23T13:10:29;20.90;23.80
19359;DHT22;9815;52.334;20.890;2023-03-23T13:12:58;20.70;24.40
19359;DHT22;9815;52.334;20.890;2023-03-23T13:15:32;20.30;24.90
19359;DHT22;9815;52.334;20.890;2023-03-23T13:18:08;20.10;25.00
19359;DHT22;9815;52.334;20.890;2023-03-23T13:21:02;20.10;25.80
19359;DHT22;9815;52.334;20.890;2023-03-23T13:23:36;19.90;25.10
19359;DHT22;9815;52.334;20.890;2023-03-23T13:26:06;19.70;25.20
19359;DHT22;9815;52.334;20.890;2023-03-23T13:28:50;19.50;25.20
19359;DHT22;9815;52.334;20.890;2023-03-23T13:31:21;19.30;25.80
19359;DHT22;9815;52.334;20.890;2023-03-23T13:33:52;19.10;26.20
19359;DHT22;9815;52.334;20.890;2023-03-23T13:36:28;19.00;26.40
19359;DHT22;9815;52.334;20.890;2023-03-23T13:38:57;19.10;26.40
19359;DHT22;9815;52.334;20.890;2023-03-23T13:41:25;19.10;26.00
19359;DHT22;9815;52.334;20.890;2023-03-23T13:44:04;19.20;26.30
19359;DHT22;9815;52.334;20.890;2023-03-23T13:46:31;19.20;26.30
19359;DHT22;9815;52.334;20.890;2023-03-23T13:49:17;19.30;26.00
19359;DHT22;9815;52.334;20.890;2023-03-23T13:51:58;19.20;26.10
19359;DHT22;9815;52.334;20.890;2023-03-23T13:54:30;19.00;26.30
19359;DHT22;9815;52.334;20.890;2023-03-23T13:56:59;18.80;26.50
19359;DHT22;9815;52.334;20.890;2023-03-23T13:59:32;18.70;26.90
19359;DHT22;9815;52.334;20.890;2023-03-23T14:02:32;18.50;27.50
19359;DHT22;9815;52.334;20.890;2023-03-23T14:07:57;18.30;28.00
19359;DHT22;9815;52.334;20.890;2023-03-23T14:10:33;18.20;28.20
19359;DHT22;9815;52.334;20.890;2023-03-23T14:13:02;18.10;28.30
19359;DHT22;9815;52.334;20.890;2023-03-23T14:15:30;18.10;28.60
19359;DHT22;9815;52.334;20.890;2023-03-23T14:17:58;17.90;29.00
19359;DHT22;9815;52.334;20.890;2023-03-23T14:20:32;17.80;29.10
19359;DHT22;9815;52.334;20.890;2023-03-23T14:23:01;17.80;29.50
19359;DHT22;9815;52.334;20.890;2023-03-23T14:25:30;17.70;29.70
19359;DHT22;9815;52.334;20.890;2023-03-23T14:27:58;17.70;30.40
19359;DHT22;9815;52.334;20.890;2023-03-23T14:30:27;17.60;31.20
19359;DHT22;9815;52.334;20.890;2023-03-23T14:33:04;17.50;32.70
19359;DHT22;9815;52.334;20.890;2023-03-23T14:35:34;17.40;33.40
19359;DHT22;9815;52.334;20.890;2023-03-23T14:38:03;17.40;33.30
19359;DHT22;9815;52.334;20.890;2023-03-23T14:40:31;17.30;34.60
19359;DHT22;9815;52.334;20.890;2023-03-23T14:42:59;17.20;34.60
19359;DHT22;9815;52.334;20.890;2023-03-23T14:45:26;17.10;35.90
19359;DHT22;9815;52.334;20.890;2023-03-23T14:47:56;17.10;34.80
19359;DHT22;9815;52.334;20.890;2023-03-23T14:50:26;17.10;36.80
19359;DHT22;9815;52.334;20.890;2023-03-23T14:53:01;17.10;35.80
19359;DHT22;9815;52.334;20.890;2023-03-23T14:55:31;17.00;36.50
19359;DHT22;9815;52.334;20.890;2023-03-23T14:58:06;17.00;36.90
19359;DHT22;9815;52.334;20.890;2023-03-23T15:00:36;16.90;37.60
19359;DHT22;9815;52.334;20.890;2023-03-23T15:03:06;16.90;37.80
19359;DHT22;9815;52.334;20.890;2023-03-23T15:05:41;16.90;38.90
19359;DHT22;9815;52.334;20.890;2023-03-23T15:08:14;16.80;39.20
19359;DHT22;9815;52.334;20.890;2023-03-23T15:10:51;16.80;39.70
19359;DHT22;9815;52.334;20.890;2023-03-23T15:13:19;16.80;39.50
19359;DHT22;9815;52.334;20.890;2023-03-23T15:15:46;16.70;37.20
19359;DHT22;9815;52.334;20.890;2023-03-23T15:18:28;16.70;38.50
19359;DHT22;9815;52.334;20.890;2023-03-23T15:20:56;16.70;38.30
19359;DHT22;9815;52.334;20.890;2023-03-23T15:23:27;16.60;37.30
19359;DHT22;9815;52.334;20.890;2023-03-23T15:25:57;16.60;37.50
19359;DHT22;9815;52.334;20.890;2023-03-23T15:28:31;16.50;38.80
19359;DHT22;9815;52.334;20.890;2023-03-23T15:31:01;16.50;38.10
19359;DHT22;9815;52.334;20.890;2023-03-23T15:33:34;16.40;39.40
19359;DHT22;9815;52.334;20.890;2023-03-23T15:36:06;16.40;38.90
19359;DHT22;9815;52.334;20.890;2023-03-23T15:38:34;16.30;41.10
19359;DHT22;9815;52.334;20.890;2023-03-23T15:41:06;16.30;40.80
19359;DHT22;9815;52.334;20.890;2023-03-23T15:43:35;16.30;42.10
19359;DHT22;9815;52.334;20.890;2023-03-23T15:46:04;16.20;42.80
19359;DHT22;9815;52.334;20.890;2023-03-23T15:48:34;16.20;43.20
19359;DHT22;9815;52.334;20.890;2023-03-23T15:51:11;16.20;44.30
19359;DHT22;9815;52.334;20.890;2023-03-23T15:53:40;16.10;44.20
19359;DHT22;9815;52.334;20.890;2023-03-23T15:56:11;16.10;43.40
19359;DHT22;9815;52.334;20.890;2023-03-23T15:58:39;16.10;45.80
19359;DHT22;9815;52.334;20.890;2023-03-23T16:01:13;16.10;45.00
19359;DHT22;9815;52.334;20.890;2023-03-23T16:03:45;16.00;46.30
19359;DHT22;9815;52.334;20.890;2023-03-23T16:06:16;16.00;47.00
19359;DHT22;9815;52.334;20.890;2023-03-23T16:08:51;16.00;47.60
19359;DHT22;9815;52.334;20.890;2023-03-23T16:11:23;15.90;51.00
19359;DHT22;9815;52.334;20.890;2023-03-23T16:13:52;15.80;52.00
19359;DHT22;9815;52.334;20.890;2023-03-23T16:16:22;15.80;53.50
19359;DHT22;9815;52.334;20.890;2023-03-23T16:18:50;15.70;54.90
19359;DHT22;9815;52.334;20.890;2023-03-23T16:21:18;15.60;57.00
19359;DHT22;9815;52.334;20.890;2023-03-23T16:23:58;15.50;62.30
19359;DHT22;9815;52.334;20.890;2023-03-23T16:26:30;15.50;59.20